Omemee, Canada
Current Conditions -  °F | °C
As of 1:00 AM on Saturday 20 Dec 2014 (Local Time) from CYPQ Reporting Station
Clear Clear  
Wind Chill: 14°   Ceiling: Unl
Heat Index: 14°   Visibility: 9mi
Dew Point: 14°   Wind: 2mph
Humidity: 100%   Direction: NA
Pressure: 30.25"   Gusts: NA
Location:  44.3°N, 78.56°W
Report Text: CYPQ 200600Z AUTO VRB02KT 9SM CLR M10/M10 A3025 RMK SLP257
Loading
Personal Weather Stations






























Interactive Weather Map New forecast layout! Learn more

10-Day Weather Forecast

Advertisements
Track Severe Weather on mobile